createdAt,value
2023-05-22T00:00:45.552Z,15.79
2023-05-22T00:03:13.012Z,15.82
2023-05-22T00:05:41.272Z,15.86
2023-05-22T00:08:11.606Z,15.73
2023-05-22T00:10:40.673Z,15.81
2023-05-22T00:13:08.212Z,15.82
2023-05-22T00:15:35.708Z,15.81
2023-05-22T00:18:03.972Z,15.72
2023-05-22T00:20:31.469Z,15.80
2023-05-22T00:23:01.242Z,15.65
2023-05-22T00:25:28.702Z,15.66
2023-05-22T00:27:57.529Z,15.60
2023-05-22T00:30:24.974Z,15.51
2023-05-22T00:32:52.474Z,15.42
2023-05-22T00:35:20.017Z,15.51
2023-05-22T00:37:47.426Z,15.56
2023-05-22T00:40:16.552Z,15.54
2023-05-22T00:42:44.498Z,15.48
2023-05-22T00:45:14.991Z,15.46
2023-05-22T00:47:42.625Z,15.15
2023-05-22T00:50:11.541Z,15.34
2023-05-22T00:52:42.071Z,15.26
2023-05-22T00:55:11.452Z,14.99
2023-05-22T00:57:40.293Z,15.19
2023-05-22T01:00:10.690Z,15.14
2023-05-22T01:02:39.788Z,14.97
2023-05-22T01:05:08.233Z,15.04
2023-05-22T01:07:37.772Z,14.93
2023-05-22T01:10:07.114Z,14.91
2023-05-22T01:12:43.869Z,14.72
2023-05-22T01:15:22.286Z,14.71
2023-05-22T01:18:01.651Z,14.69
2023-05-22T01:20:32.985Z,14.87
2023-05-22T01:23:48.320Z,14.82
2023-05-22T01:26:53.966Z,14.79
2023-05-22T01:29:41.552Z,14.65
2023-05-22T01:32:11.616Z,14.72
2023-05-22T01:34:41.526Z,14.77
2023-05-22T01:37:11.196Z,14.76
2023-05-22T01:39:39.926Z,14.64
2023-05-22T01:42:08.180Z,14.37
2023-05-22T01:44:35.629Z,14.52
2023-05-22T01:47:05.336Z,14.45
2023-05-22T01:49:35.872Z,14.57
2023-05-22T01:52:12.244Z,14.62
2023-05-22T01:54:45.375Z,14.66
2023-05-22T01:57:17.035Z,14.58
2023-05-22T01:59:49.601Z,14.57
2023-05-22T02:02:20.008Z,14.57
2023-05-22T02:04:53.792Z,14.54
2023-05-22T02:07:24.933Z,14.49
2023-05-22T02:09:54.740Z,14.33
2023-05-22T02:12:23.463Z,14.06
2023-05-22T02:14:51.363Z,14.29
2023-05-22T02:17:19.011Z,14.35
2023-05-22T02:19:46.500Z,14.45
2023-05-22T02:22:15.286Z,14.48
2023-05-22T02:24:45.068Z,14.34
2023-05-22T02:27:12.850Z,14.31
2023-05-22T02:29:40.762Z,14.19
2023-05-22T02:32:09.065Z,14.19
2023-05-22T02:34:37.807Z,14.19
2023-05-22T02:37:06.093Z,14.17
2023-05-22T02:39:34.847Z,14.03
2023-05-22T02:42:02.259Z,14.02
2023-05-22T02:44:29.692Z,13.90
2023-05-22T02:46:57.259Z,13.97
2023-05-22T02:49:24.907Z,13.89
2023-05-22T02:51:52.402Z,13.95
2023-05-22T02:54:19.814Z,13.79
2023-05-22T02:56:48.569Z,13.93
2023-05-22T02:59:16.477Z,13.78
2023-05-22T03:01:44.314Z,13.79
2023-05-22T03:04:12.804Z,13.36
2023-05-22T03:06:40.442Z,13.63
2023-05-22T03:09:08.721Z,13.75
2023-05-22T03:11:36.137Z,13.88
2023-05-22T03:14:04.882Z,13.89
2023-05-22T03:16:32.828Z,13.91
2023-05-22T03:19:09.648Z,13.89
2023-05-22T03:21:37.407Z,13.84
2023-05-22T03:24:05.476Z,13.98
2023-05-22T03:26:33.063Z,14.12
2023-05-22T03:29:00.571Z,14.15
2023-05-22T03:31:31.369Z,14.08
2023-05-22T03:33:58.849Z,14.12
2023-05-22T03:36:26.428Z,14.14
2023-05-22T03:38:54.263Z,14.16
2023-05-22T03:41:22.279Z,14.27
2023-05-22T03:43:49.722Z,14.47
2023-05-22T03:46:17.429Z,14.70
2023-05-22T03:48:46.243Z,14.83
2023-05-22T03:51:13.873Z,14.82
2023-05-22T03:53:41.324Z,14.97
2023-05-22T03:56:08.812Z,14.87
2023-05-22T03:58:36.211Z,14.57
2023-05-22T04:01:04.241Z,14.86
2023-05-22T04:03:31.768Z,15.11
2023-05-22T04:06:00.635Z,15.31
2023-05-22T04:08:28.085Z,15.45
2023-05-22T04:10:55.577Z,15.44
2023-05-22T04:13:23.061Z,15.63
2023-05-22T04:15:52.691Z,15.57
2023-05-22T04:18:20.213Z,16.08
2023-05-22T04:20:47.612Z,17.04
2023-05-22T04:23:16.358Z,18.08
2023-05-22T04:25:44.546Z,17.28
2023-05-22T04:28:13.018Z,18.04
2023-05-22T04:30:41.094Z,18.29
2023-05-22T04:33:08.744Z,19.25
2023-05-22T04:35:36.205Z,19.29
2023-05-22T04:38:03.809Z,19.75
2023-05-22T04:40:33.487Z,19.48
2023-05-22T04:43:01.557Z,18.74
2023-05-22T04:45:29.535Z,18.75
2023-05-22T04:47:57.181Z,18.29
2023-05-22T04:50:24.888Z,18.15
2023-05-22T04:52:53.418Z,18.57
2023-05-22T04:55:22.201Z,18.76
2023-05-22T04:57:52.674Z,18.66
2023-05-22T05:00:26.334Z,18.90
2023-05-22T05:02:54.261Z,19.07
2023-05-22T05:05:22.129Z,19.07
2023-05-22T05:07:50.606Z,19.52
2023-05-22T05:10:18.453Z,19.05
2023-05-22T05:12:45.971Z,19.12
2023-05-22T05:15:15.214Z,18.82
2023-05-22T05:17:42.705Z,19.00
2023-05-22T05:20:14.320Z,18.82
2023-05-22T05:22:43.947Z,19.02
2023-05-22T05:25:12.019Z,19.59
2023-05-22T05:27:39.826Z,20.00
2023-05-22T05:30:08.623Z,20.25
2023-05-22T05:32:37.487Z,20.27
2023-05-22T05:35:05.639Z,20.57
2023-05-22T05:37:33.033Z,20.28
2023-05-22T05:40:00.497Z,20.30
2023-05-22T05:42:27.965Z,20.60
2023-05-22T05:44:55.362Z,20.66
2023-05-22T05:47:24.106Z,20.45
2023-05-22T05:49:53.040Z,20.04
2023-05-22T05:52:20.922Z,19.94
2023-05-22T05:54:49.009Z,20.05
2023-05-22T05:57:16.553Z,20.16
2023-05-22T05:59:44.005Z,20.22
2023-05-22T06:02:11.822Z,20.21
2023-05-22T06:04:39.294Z,19.81
2023-05-22T06:07:08.045Z,20.43
2023-05-22T06:09:36.246Z,20.93
2023-05-22T06:12:04.302Z,20.78
2023-05-22T06:14:31.714Z,20.89
2023-05-22T06:16:59.185Z,20.99
2023-05-22T06:19:26.789Z,20.69
2023-05-22T06:21:54.264Z,20.99
2023-05-22T06:24:23.043Z,21.23
2023-05-22T06:26:50.633Z,21.66
2023-05-22T06:29:18.114Z,21.86
2023-05-22T06:31:45.623Z,22.31
2023-05-22T06:34:13.256Z,22.08
2023-05-22T06:36:40.756Z,22.38
2023-05-22T06:39:08.648Z,21.75
2023-05-22T06:41:37.818Z,21.59
2023-05-22T06:44:06.471Z,22.36
2023-05-22T06:46:33.959Z,22.13
2023-05-22T06:49:01.829Z,22.55
2023-05-22T06:51:29.437Z,22.23
2023-05-22T06:53:57.397Z,22.23
2023-05-22T06:56:25.382Z,22.34
2023-05-22T06:58:54.169Z,22.52
2023-05-22T07:01:21.762Z,22.80
2023-05-22T07:03:49.408Z,23.00
2023-05-22T07:06:17.129Z,23.08
2023-05-22T07:08:44.659Z,23.44
2023-05-22T07:11:12.118Z,23.37
2023-05-22T07:13:39.566Z,22.81
2023-05-22T07:16:08.901Z,22.79
2023-05-22T07:18:36.381Z,23.10
2023-05-22T07:21:03.919Z,23.28
2023-05-22T07:23:31.368Z,23.04
2023-05-22T07:25:58.800Z,23.65
2023-05-22T07:28:26.640Z,24.31
2023-05-22T07:30:54.128Z,24.61
2023-05-22T07:33:23.379Z,24.86
2023-05-22T07:35:51.859Z,24.78
2023-05-22T07:38:19.819Z,25.59
2023-05-22T07:40:47.260Z,25.32
2023-05-22T07:43:15.332Z,25.88
2023-05-22T07:45:44.145Z,25.58
2023-05-22T07:48:11.872Z,26.05
2023-05-22T07:50:44.734Z,26.35
2023-05-22T07:53:12.624Z,26.39
2023-05-22T07:55:40.754Z,26.42
2023-05-22T07:58:10.332Z,26.64
2023-05-22T08:00:37.966Z,26.19
2023-05-22T08:03:05.909Z,26.39
2023-05-22T08:05:33.428Z,26.45
2023-05-22T08:08:02.907Z,26.32
2023-05-22T08:10:46.467Z,26.57
2023-05-22T08:13:16.692Z,26.53
2023-05-22T08:15:44.159Z,26.46
2023-05-22T08:18:11.706Z,26.97
2023-05-22T08:20:39.558Z,26.24
2023-05-22T08:23:08.464Z,26.35
2023-05-22T08:25:35.899Z,27.11
2023-05-22T08:28:03.478Z,26.53
2023-05-22T08:30:31.118Z,26.99
2023-05-22T08:32:58.548Z,26.72
2023-05-22T08:35:26.103Z,27.17
2023-05-22T08:37:53.653Z,27.00
2023-05-22T08:40:23.107Z,27.06
2023-05-22T08:42:54.323Z,27.19
2023-05-22T08:45:21.964Z,26.70
2023-05-22T08:47:53.638Z,28.05
2023-05-22T08:50:21.304Z,28.86
2023-05-22T08:52:52.216Z,27.72
2023-05-22T08:55:21.761Z,28.07
2023-05-22T08:57:50.660Z,27.63
2023-05-22T09:00:19.460Z,28.34
2023-05-22T09:02:48.559Z,28.78
2023-05-22T09:05:17.510Z,28.14
2023-05-22T09:07:45.810Z,28.27
2023-05-22T09:10:14.478Z,28.61
2023-05-22T09:13:05.065Z,28.52
2023-05-22T09:15:33.254Z,28.68
2023-05-22T09:18:01.114Z,28.62
2023-05-22T09:20:28.605Z,27.77
2023-05-22T09:22:56.684Z,28.85
2023-05-22T09:25:24.541Z,29.02
2023-05-22T09:27:51.987Z,27.87
2023-05-22T09:30:21.440Z,28.00
2023-05-22T09:32:49.750Z,27.46
2023-05-22T09:35:17.283Z,27.79
2023-05-22T09:37:44.761Z,27.89
2023-05-22T09:40:14.082Z,28.43
2023-05-22T09:42:45.686Z,28.35
2023-05-22T09:45:13.506Z,28.65
2023-05-22T09:47:42.320Z,27.56
2023-05-22T09:50:10.834Z,28.05
2023-05-22T09:52:38.895Z,27.79
2023-05-22T09:55:08.660Z,27.19
2023-05-22T09:57:42.938Z,27.96
2023-05-22T10:00:17.857Z,28.16
2023-05-22T10:02:47.933Z,26.56
2023-05-22T10:05:21.588Z,27.04
2023-05-22T10:07:51.764Z,27.29
2023-05-22T10:10:22.451Z,27.57
2023-05-22T10:12:59.101Z,27.22
2023-05-22T10:15:28.041Z,27.20
2023-05-22T10:17:57.937Z,27.63
2023-05-22T10:20:26.810Z,26.75
2023-05-22T10:22:55.720Z,26.33
2023-05-22T10:25:23.916Z,25.71
2023-05-22T10:27:53.816Z,25.89
2023-05-22T10:30:29.137Z,25.99
2023-05-22T10:33:05.638Z,25.68
2023-05-22T10:35:42.146Z,26.05
2023-05-22T10:38:38.238Z,26.57
2023-05-22T10:41:06.413Z,27.51
2023-05-22T10:43:33.964Z,27.72
2023-05-22T10:46:05.615Z,27.10
2023-05-22T10:48:39.898Z,27.68
2023-05-22T10:51:08.266Z,27.45
2023-05-22T10:53:36.865Z,28.49
2023-05-22T10:56:11.837Z,28.29
2023-05-22T10:58:39.500Z,27.62
2023-05-22T11:01:12.880Z,27.46
2023-05-22T11:03:59.050Z,27.19
2023-05-22T11:06:35.454Z,28.08
2023-05-22T11:09:18.746Z,26.59
2023-05-22T11:11:47.611Z,27.24
2023-05-22T11:14:17.781Z,27.14
2023-05-22T11:16:45.416Z,27.10
2023-05-22T11:19:23.205Z,27.62
2023-05-22T11:21:51.731Z,27.60
2023-05-22T11:24:19.368Z,27.80
2023-05-22T11:27:02.635Z,28.00
2023-05-22T11:29:31.357Z,27.43
2023-05-22T11:31:59.442Z,27.93
2023-05-22T11:34:28.746Z,27.45
2023-05-22T11:36:58.978Z,27.08
2023-05-22T11:39:26.455Z,27.42
2023-05-22T11:41:54.332Z,27.54
2023-05-22T11:44:21.789Z,27.72
2023-05-22T11:46:49.510Z,28.13
2023-05-22T11:49:17.308Z,27.32
2023-05-22T11:51:46.198Z,27.09
2023-05-22T11:54:13.684Z,27.57
2023-05-22T11:56:41.096Z,27.15
2023-05-22T11:59:08.546Z,26.96
2023-05-22T12:01:36.316Z,26.76
2023-05-22T12:04:03.834Z,26.90
2023-05-22T12:06:33.422Z,27.31
2023-05-22T12:09:02.925Z,27.28
2023-05-22T12:11:35.621Z,27.65
2023-05-22T12:14:05.192Z,27.93
2023-05-22T12:16:35.483Z,26.86
2023-05-22T12:19:06.260Z,27.05
2023-05-22T12:21:33.726Z,27.47
2023-05-22T12:24:06.122Z,27.57
2023-05-22T12:26:34.230Z,27.28
2023-05-22T12:29:02.622Z,27.69
2023-05-22T12:31:36.779Z,26.93
2023-05-22T12:34:07.263Z,26.90
2023-05-22T12:36:35.862Z,27.34
2023-05-22T12:39:10.296Z,27.41
2023-05-22T12:41:37.817Z,27.16
2023-05-22T12:44:05.757Z,28.44
2023-05-22T12:46:33.749Z,28.17
2023-05-22T12:49:02.010Z,27.86
2023-05-22T12:51:31.245Z,27.72
2023-05-22T12:53:59.111Z,27.33
2023-05-22T12:56:27.977Z,27.17
2023-05-22T12:58:55.872Z,27.93
2023-05-22T13:01:24.374Z,28.27
2023-05-22T13:03:52.857Z,28.37
2023-05-22T13:06:20.607Z,28.55
2023-05-22T13:08:48.054Z,28.22
2023-05-22T13:11:15.497Z,29.02
2023-05-22T13:13:44.275Z,28.47
2023-05-22T13:16:12.089Z,28.56
2023-05-22T13:18:39.570Z,27.95
2023-05-22T13:21:07.026Z,28.60
2023-05-22T13:23:34.541Z,27.73
2023-05-22T13:26:03.126Z,28.16
2023-05-22T13:28:30.615Z,28.18
2023-05-22T13:30:59.861Z,28.19
2023-05-22T13:33:27.305Z,27.82
2023-05-22T13:35:54.861Z,28.25
2023-05-22T13:38:22.299Z,27.79
2023-05-22T13:40:49.788Z,28.36
2023-05-22T13:43:17.257Z,28.19
2023-05-22T13:45:44.721Z,28.66
2023-05-22T13:48:13.682Z,28.04
2023-05-22T13:50:41.278Z,28.67
2023-05-22T13:53:08.857Z,28.27
2023-05-22T13:55:36.416Z,28.12
2023-05-22T13:58:04.856Z,28.75
2023-05-22T14:00:32.293Z,28.76
2023-05-22T14:02:59.905Z,28.90
2023-05-22T14:05:28.789Z,28.01
2023-05-22T14:07:56.839Z,27.58
2023-05-22T14:10:24.505Z,28.16
2023-05-22T14:12:51.894Z,27.73
2023-05-22T14:15:19.356Z,28.12
2023-05-22T14:17:47.959Z,28.63
2023-05-22T14:20:15.402Z,28.91
2023-05-22T14:22:56.447Z,28.88
2023-05-22T14:25:25.655Z,27.75
2023-05-22T14:27:53.103Z,27.48
2023-05-22T14:30:20.748Z,27.42
2023-05-22T14:32:48.729Z,28.16
2023-05-22T14:35:16.731Z,28.27
2023-05-22T14:37:46.908Z,28.00
2023-05-22T14:40:14.330Z,28.43
2023-05-22T14:42:41.814Z,27.64
2023-05-22T14:45:09.912Z,27.83
2023-05-22T14:47:37.392Z,27.73
2023-05-22T14:50:18.190Z,27.82
2023-05-22T14:52:49.414Z,27.94
2023-05-22T14:55:17.397Z,27.60
2023-05-22T14:57:45.370Z,27.23
2023-05-22T15:00:15.286Z,27.23
2023-05-22T15:02:42.802Z,27.46
2023-05-22T15:05:10.671Z,27.87
2023-05-22T15:07:44.459Z,27.50
2023-05-22T15:10:14.584Z,27.22
2023-05-22T15:12:42.054Z,27.01
2023-05-22T15:15:10.289Z,26.81
2023-05-22T15:17:38.869Z,26.76
2023-05-22T15:20:09.221Z,26.91
2023-05-22T15:22:36.718Z,26.63
2023-05-22T15:25:05.691Z,26.83
2023-05-22T15:27:35.781Z,26.74
2023-05-22T15:30:04.227Z,26.38
2023-05-22T15:32:32.828Z,26.68
2023-05-22T15:35:00.409Z,26.50
2023-05-22T15:37:29.171Z,26.32
2023-05-22T15:39:58.299Z,25.91
2023-05-22T15:42:25.765Z,26.04
2023-05-22T15:44:54.570Z,26.09
2023-05-22T15:47:25.307Z,25.94
2023-05-22T15:49:52.819Z,25.95
2023-05-22T15:52:22.427Z,25.75
2023-05-22T15:54:49.962Z,25.87
2023-05-22T15:57:17.595Z,26.08
2023-05-22T15:59:47.092Z,25.96
2023-05-22T16:02:15.908Z,26.00
2023-05-22T16:04:43.359Z,25.71
2023-05-22T16:07:11.241Z,25.81
2023-05-22T16:09:38.807Z,25.71
2023-05-22T16:12:07.014Z,25.60
2023-05-22T16:14:34.419Z,25.28
2023-05-22T16:17:01.838Z,25.40
2023-05-22T16:19:30.803Z,25.44
2023-05-22T16:21:58.264Z,25.76
2023-05-22T16:24:26.176Z,25.34
2023-05-22T16:26:53.791Z,25.21
2023-05-22T16:29:21.414Z,25.39
2023-05-22T16:31:49.122Z,25.05
2023-05-22T16:34:16.652Z,25.09
2023-05-22T16:36:45.837Z,25.20
2023-05-22T16:39:13.438Z,24.97
2023-05-22T16:41:40.881Z,25.14
2023-05-22T16:44:08.336Z,25.14
2023-05-22T16:46:35.929Z,25.18
2023-05-22T16:49:03.481Z,25.04
2023-05-22T16:51:31.191Z,24.95
2023-05-22T16:53:59.952Z,24.93
2023-05-22T16:56:27.570Z,25.02
2023-05-22T16:58:54.982Z,24.93
2023-05-22T17:01:25.800Z,25.14
2023-05-22T17:03:53.288Z,24.92
2023-05-22T17:06:21.208Z,24.70
2023-05-22T17:08:48.811Z,24.76
2023-05-22T17:11:17.557Z,24.53
2023-05-22T17:13:44.973Z,24.53
2023-05-22T17:16:12.441Z,24.39
2023-05-22T17:18:40.470Z,24.59
2023-05-22T17:21:09.075Z,24.39
2023-05-22T17:23:37.316Z,24.26
2023-05-22T17:26:05.078Z,24.25
2023-05-22T17:28:33.814Z,24.02
2023-05-22T17:31:01.516Z,24.03
2023-05-22T17:33:29.033Z,24.25
2023-05-22T17:35:56.494Z,24.31
2023-05-22T17:38:23.962Z,24.34
2023-05-22T17:40:52.066Z,24.17
2023-05-22T17:43:19.940Z,24.22
2023-05-22T17:45:50.582Z,23.90
2023-05-22T17:48:21.506Z,23.93
2023-05-22T17:50:49.537Z,23.90
2023-05-22T17:53:19.672Z,23.93
2023-05-22T17:55:48.198Z,23.80
2023-05-22T17:58:16.196Z,23.80
2023-05-22T18:00:43.790Z,23.85
2023-05-22T18:03:12.838Z,23.79
2023-05-22T18:05:40.429Z,23.60
2023-05-22T18:08:07.902Z,23.55
2023-05-22T18:10:35.303Z,23.51
2023-05-22T18:13:04.728Z,23.55
2023-05-22T18:15:32.868Z,23.30
2023-05-22T18:18:00.450Z,23.43
2023-05-22T18:20:29.412Z,23.39
2023-05-22T18:22:56.880Z,23.39
2023-05-22T18:25:24.500Z,23.09
2023-05-22T18:27:51.939Z,23.12
2023-05-22T18:30:19.345Z,23.12
2023-05-22T18:32:48.735Z,22.91
2023-05-22T18:35:16.423Z,22.97
2023-05-22T18:37:45.246Z,22.81
2023-05-22T18:40:13.850Z,22.81
2023-05-22T18:42:44.703Z,22.79
2023-05-22T18:45:12.543Z,22.60
2023-05-22T18:47:40.133Z,22.57
2023-05-22T18:50:08.823Z,22.56
2023-05-22T18:52:37.065Z,22.36
2023-05-22T18:55:06.724Z,22.31
2023-05-22T18:57:34.438Z,22.30
2023-05-22T19:00:01.865Z,22.30
2023-05-22T19:02:29.345Z,22.12
2023-05-22T19:04:56.832Z,22.06
2023-05-22T19:07:24.272Z,21.95
2023-05-22T19:09:51.771Z,21.89
2023-05-22T19:12:20.529Z,21.78
2023-05-22T19:14:49.603Z,21.59
2023-05-22T19:17:17.148Z,21.71
2023-05-22T19:19:44.663Z,21.69
2023-05-22T19:22:12.125Z,21.64
2023-05-22T19:24:39.664Z,21.52
2023-05-22T19:27:07.156Z,21.65
2023-05-22T19:29:35.919Z,21.59
2023-05-22T19:32:03.450Z,21.59
2023-05-22T19:34:30.930Z,21.45
2023-05-22T19:36:58.449Z,21.41
2023-05-22T19:39:26.004Z,21.25
2023-05-22T19:41:54.454Z,21.23
2023-05-22T19:44:22.344Z,21.00
2023-05-22T19:46:54.699Z,20.96
2023-05-22T19:49:22.321Z,21.03
2023-05-22T19:51:49.849Z,21.02
2023-05-22T19:54:17.438Z,20.88
2023-05-22T19:56:44.949Z,20.76
2023-05-22T19:59:12.500Z,20.86
2023-05-22T20:01:39.963Z,20.88
2023-05-22T20:04:08.860Z,20.78
2023-05-22T20:06:36.371Z,20.72
2023-05-22T20:09:05.793Z,20.54
2023-05-22T20:11:33.213Z,20.55
2023-05-22T20:14:02.418Z,20.55
2023-05-22T20:16:30.050Z,20.54
2023-05-22T20:18:57.579Z,20.37
2023-05-22T20:21:26.377Z,20.34
2023-05-22T20:23:55.422Z,20.39
2023-05-22T20:26:22.976Z,20.41
2023-05-22T20:28:50.881Z,20.28
2023-05-22T20:31:18.409Z,20.44
2023-05-22T20:33:45.892Z,20.43
2023-05-22T20:36:16.433Z,20.42
2023-05-22T20:38:45.236Z,20.26
2023-05-22T20:41:13.704Z,20.32
2023-05-22T20:43:43.125Z,20.34
2023-05-22T20:46:11.195Z,20.27
2023-05-22T20:48:38.987Z,20.24
2023-05-22T20:51:06.564Z,20.18
2023-05-22T20:53:33.990Z,20.10
2023-05-22T20:56:02.754Z,19.95
2023-05-22T20:58:30.175Z,19.92
2023-05-22T21:00:57.602Z,19.88
2023-05-22T21:03:25.995Z,19.85
2023-05-22T21:05:53.624Z,19.67
2023-05-22T21:08:21.640Z,19.59
2023-05-22T21:10:49.104Z,19.60
2023-05-22T21:13:17.915Z,19.60
2023-05-22T21:15:45.374Z,19.54
2023-05-22T21:18:12.934Z,19.33
2023-05-22T21:20:40.611Z,19.25
2023-05-22T21:23:08.313Z,19.31
2023-05-22T21:25:36.398Z,19.38
2023-05-22T21:28:03.945Z,19.26
2023-05-22T21:30:32.705Z,19.18
2023-05-22T21:33:01.008Z,18.98
2023-05-22T21:35:28.492Z,18.87
2023-05-22T21:37:55.920Z,18.63
2023-05-22T21:40:23.535Z,18.85
2023-05-22T21:42:51.040Z,18.34
2023-05-22T21:45:18.771Z,18.62
2023-05-22T21:47:47.549Z,18.59
2023-05-22T21:50:15.159Z,18.65
2023-05-22T21:52:44.148Z,18.78
2023-05-22T21:55:11.634Z,18.78
2023-05-22T21:57:39.700Z,18.80
2023-05-22T22:00:08.431Z,18.80
2023-05-22T22:02:35.960Z,18.80
2023-05-22T22:05:05.286Z,18.76
2023-05-22T22:07:32.743Z,18.82
2023-05-22T22:10:00.593Z,18.72
2023-05-22T22:12:28.067Z,18.46
2023-05-22T22:14:55.539Z,18.21
2023-05-22T22:17:23.951Z,18.63
2023-05-22T22:19:53.384Z,18.81
2023-05-22T22:22:22.782Z,18.90
2023-05-22T22:24:50.711Z,19.02
2023-05-22T22:27:19.626Z,19.06
2023-05-22T22:29:47.036Z,19.06
2023-05-22T22:32:14.599Z,19.06
2023-05-22T22:34:43.077Z,19.05
2023-05-22T22:37:11.088Z,18.89
2023-05-22T22:39:40.119Z,18.62
2023-05-22T22:42:08.214Z,18.22
2023-05-22T22:44:35.643Z,18.16
2023-05-22T22:47:04.566Z,18.49
2023-05-22T22:49:32.695Z,18.53
2023-05-22T22:52:00.758Z,18.70
2023-05-22T22:54:28.366Z,18.35
2023-05-22T22:56:57.293Z,18.52
2023-05-22T22:59:24.733Z,18.71
2023-05-22T23:01:52.233Z,18.79
2023-05-22T23:04:19.849Z,18.58
2023-05-22T23:06:47.361Z,18.57
2023-05-22T23:09:15.632Z,18.58
2023-05-22T23:11:43.079Z,18.47
2023-05-22T23:14:11.800Z,18.55
2023-05-22T23:16:41.223Z,18.55
2023-05-22T23:19:10.310Z,18.39
2023-05-22T23:21:37.794Z,18.40
2023-05-22T23:24:05.937Z,18.43
2023-05-22T23:26:34.329Z,18.49
2023-05-22T23:29:02.195Z,18.57
2023-05-22T23:31:31.237Z,18.60
2023-05-22T23:33:59.423Z,18.35
2023-05-22T23:36:26.850Z,18.55
2023-05-22T23:38:54.258Z,18.60
2023-05-22T23:41:21.805Z,17.97
2023-05-22T23:43:49.224Z,17.85
2023-05-22T23:46:16.694Z,18.28
2023-05-22T23:48:45.456Z,18.39
2023-05-22T23:51:14.426Z,18.40
2023-05-22T23:53:42.419Z,18.36
2023-05-22T23:56:10.341Z,18.32
2023-05-22T23:58:38.192Z,17.76
